Time;durP1;ratioP1;P1;durP2;ratioP2;P2;SDS_P1;SDS_P2;PMS_P1;PMS_P2;Temp;Humidity;BMP_temperature;BMP_pressure;BME280_temperature;BME280_humidity;BME280_pressure;Samples;Min_cycle;Max_cycle;Signal;HPM_P1;HPM_P2
2023/07/15 00:01:28;;;;;;;;;3.33;3.00;;;;;-147.70;100.00;61350.09;5059624;28;45347;-75
2023/07/15 00:03:55;;;;;;;;;2.67;2.33;;;;;-147.70;100.00;61350.09;5041153;28;45258;-82
2023/07/15 00:06:21;;;;;;;;;2.33;2.33;;;;;-147.70;100.00;61350.09;5043699;28;45502;-80
2023/07/15 00:08:47;;;;;;;;;3.67;3.67;;;;;-147.70;100.00;61350.09;5057867;28;45599;-79
2023/07/15 00:11:19;;;;;;;;;5.00;4.00;;;;;-147.70;100.00;61350.09;5059407;28;45621;-78
2023/07/15 00:13:44;;;;;;;;;3.67;3.00;;;;;-147.70;100.00;61350.09;5042528;28;45583;-76
2023/07/15 00:16:09;;;;;;;;;5.00;3.33;;;;;-147.70;100.00;61350.09;5042677;28;45313;-76
2023/07/15 00:18:35;;;;;;;;;2.67;2.67;;;;;-147.70;100.00;61350.09;5058055;28;46031;-78
2023/07/15 00:21:09;;;;;;;;;3.33;2.67;;;;;-147.70;100.00;61350.09;5059558;28;45383;-80
2023/07/15 00:23:35;;;;;;;;;2.00;2.00;;;;;-147.70;100.00;61350.09;5044259;28;45273;-77
2023/07/15 00:26:00;;;;;;;;;2.00;2.00;;;;;-147.70;100.00;61350.09;5054289;28;45372;-76
2023/07/15 00:28:25;;;;;;;;;2.33;2.33;;;;;-147.70;100.00;61350.09;5059106;28;46630;-76
2023/07/15 00:30:55;;;;;;;;;3.00;1.00;;;;;-147.70;100.00;61350.09;5059516;28;45208;-76
2023/07/15 00:33:20;;;;;;;;;5.00;2.00;;;;;-147.70;100.00;61350.09;5046179;28;45779;-81
2023/07/15 00:35:47;;;;;;;;;2.00;2.00;;;;;-147.70;100.00;61350.09;5039372;28;45280;-77
2023/07/15 00:38:13;;;;;;;;;35.67;32.00;;;;;-147.70;100.00;61350.09;5038958;28;45423;-75
2023/07/15 00:40:44;;;;;;;;;2.00;2.00;;;;;-147.70;100.00;61350.09;5054146;28;45234;-82
2023/07/15 00:43:47;;;;;;;;;3.33;3.33;;;;;-147.70;100.00;61350.09;5047638;28;45242;-82
2023/07/15 00:46:18;;;;;;;;;3.00;2.00;;;;;-147.70;100.00;61350.09;5039157;28;45533;-76
2023/07/15 00:49:05;;;;;;;;;2.67;2.33;;;;;-147.70;100.00;61350.09;5038759;28;46421;-76
2023/07/15 00:51:35;;;;;;;;;6.00;3.33;;;;;-147.70;100.00;61350.09;5038818;28;45301;-78
2023/07/15 00:54:02;;;;;;;;;2.00;2.00;;;;;-147.70;100.00;61350.09;5056471;28;45351;-78
2023/07/15 00:56:30;;;;;;;;;2.00;2.00;;;;;-147.70;100.00;61350.09;5059173;28;45503;-77
2023/07/15 00:58:56;;;;;;;;;2.67;2.67;;;;;-147.70;100.00;61350.09;5057721;28;46290;-76
2023/07/15 01:01:22;;;;;;;;;2.00;2.00;;;;;-147.70;100.00;61350.09;5060065;28;45538;-74
2023/07/15 01:03:48;;;;;;;;;3.00;3.00;;;;;-147.70;100.00;61350.09;5055265;28;45490;-79
2023/07/15 01:06:14;;;;;;;;;2.67;2.67;;;;;-147.70;100.00;61350.09;5059290;28;45602;-80
2023/07/15 01:08:39;;;;;;;;;2.00;2.00;;;;;-147.70;100.00;61350.09;5058428;28;45524;-80
2023/07/15 01:11:06;;;;;;;;;2.00;2.00;;;;;-147.70;100.00;61350.09;5058613;28;45421;-78
2023/07/15 01:13:32;;;;;;;;;3.33;3.00;;;;;-147.70;100.00;61350.09;5056819;28;45458;-79
2023/07/15 01:15:57;;;;;;;;;2.00;2.00;;;;;-147.70;100.00;61350.09;5058730;28;45233;-78
2023/07/15 01:18:23;;;;;;;;;3.00;3.00;;;;;-147.70;100.00;61350.09;5058244;28;46303;-75
2023/07/15 01:20:50;;;;;;;;;3.67;3.00;;;;;-147.70;100.00;61350.09;5041368;28;45285;-83
2023/07/15 01:23:16;;;;;;;;;4.33;2.33;;;;;-147.70;100.00;61350.09;5038722;28;45313;-75
2023/07/15 01:25:41;;;;;;;;;4.00;3.00;;;;;-147.70;100.00;61350.09;5038381;28;45444;-78
2023/07/15 01:28:06;;;;;;;;;2.00;2.00;;;;;-147.70;100.00;61350.09;5038132;28;46201;-80
2023/07/15 01:30:32;;;;;;;;;2.00;2.00;;;;;-147.70;100.00;61350.09;5038418;28;45617;-84
2023/07/15 01:32:57;;;;;;;;;2.00;2.00;;;;;-147.70;100.00;61350.09;5038156;28;45949;-80
2023/07/15 01:35:22;;;;;;;;;2.00;2.00;;;;;-147.70;100.00;61350.09;5038694;28;45363;-83
2023/07/15 01:37:48;;;;;;;;;2.00;2.00;;;;;-147.70;100.00;61350.09;5041443;28;45468;-80
2023/07/15 01:40:13;;;;;;;;;2.00;2.00;;;;;-147.70;100.00;61350.09;5058241;28;45414;-78
2023/07/15 01:42:40;;;;;;;;;2.00;2.00;;;;;-147.70;100.00;61350.09;5056972;28;45620;-82
2023/07/15 01:45:08;;;;;;;;;3.00;3.00;;;;;-147.70;100.00;61350.09;5058529;28;45349;-81
2023/07/15 01:47:34;;;;;;;;;1.00;1.00;;;;;-147.70;100.00;61350.09;5056737;28;46423;-79
2023/07/15 01:49:59;;;;;;;;;3.00;3.00;;;;;-147.70;100.00;61350.09;5038958;28;45401;-78
2023/07/15 01:52:25;;;;;;;;;2.00;2.00;;;;;-147.70;100.00;61350.09;5038001;28;45372;-77
2023/07/15 01:54:50;;;;;;;;;3.00;3.00;;;;;-147.70;100.00;61350.09;5038316;28;45279;-80
2023/07/15 01:57:16;;;;;;;;;2.00;2.00;;;;;-147.70;100.00;61350.09;5050700;28;45589;-82
2023/07/15 01:59:41;;;;;;;;;0.67;0.67;;;;;-147.70;100.00;61350.09;5058067;28;45485;-78
2023/07/15 02:02:07;;;;;;;;;1.00;1.00;;;;;-147.70;100.00;61350.09;5057481;28;46903;-77
2023/07/15 02:04:32;;;;;;;;;1.33;0.00;;;;;-147.70;100.00;61350.09;5038105;28;45570;-78
2023/07/15 02:06:58;;;;;;;;;0.67;0.00;;;;;-147.70;100.00;61350.09;5037965;28;46633;-76
2023/07/15 02:09:23;;;;;;;;;2.67;0.00;;;;;-147.70;100.00;61350.09;5037790;28;45398;-80
2023/07/15 02:11:49;;;;;;;;;0.00;0.00;;;;;-147.70;100.00;61350.09;5037937;28;45240;-80
2023/07/15 02:14:15;;;;;;;;;0.00;0.00;;;;;-147.70;100.00;61350.09;5037596;28;45258;-76
2023/07/15 02:16:40;;;;;;;;;0.00;0.00;;;;;-147.70;100.00;61350.09;5037627;28;46450;-77
2023/07/15 02:19:06;;;;;;;;;0.00;0.00;;;;;-147.70;100.00;61350.09;5051980;28;45458;-79
2023/07/15 02:21:31;;;;;;;;;0.67;0.00;;;;;-147.70;100.00;61350.09;5037742;28;45472;-79
2023/07/15 02:23:59;;;;;;;;;0.00;0.00;;;;;-147.70;100.00;61350.09;5038122;28;45420;-82
2023/07/15 02:26:24;;;;;;;;;0.00;0.00;;;;;-147.70;100.00;61350.09;5037281;28;46508;-82
2023/07/15 02:28:49;;;;;;;;;1.33;0.00;;;;;-147.70;100.00;61350.09;5036948;28;45424;-80
2023/07/15 02:31:15;;;;;;;;;0.67;0.00;;;;;-147.70;100.00;61350.09;5037021;28;45411;-78
2023/07/15 02:33:41;;;;;;;;;0.00;0.00;;;;;-147.70;100.00;61350.09;5038518;28;45285;-82
2023/07/15 02:36:06;;;;;;;;;0.00;0.00;;;;;-147.70;100.00;61350.09;5037465;28;45581;-75
2023/07/15 02:38:31;;;;;;;;;0.00;0.00;;;;;-147.70;100.00;61350.09;5037616;28;45256;-84
2023/07/15 02:40:57;;;;;;;;;0.00;0.00;;;;;-147.70;100.00;61350.09;5038402;28;45447;-78
2023/07/15 02:43:23;;;;;;;;;0.00;0.00;;;;;-147.70;100.00;61350.09;5037541;28;45357;-82
2023/07/15 02:45:51;;;;;;;;;0.00;0.00;;;;;-147.70;100.00;61350.09;5037239;28;46591;-77
2023/07/15 02:48:19;;;;;;;;;0.00;0.00;;;;;-147.70;100.00;61350.09;5037166;28;45273;-81
2023/07/15 02:50:53;;;;;;;;;0.00;0.00;;;;;-147.70;100.00;61350.09;5037255;28;45213;-78
2023/07/15 02:53:18;;;;;;;;;0.00;0.00;;;;;-147.70;100.00;61350.09;5051312;28;45537;-81
2023/07/15 02:55:44;;;;;;;;;0.00;0.00;;;;;-147.70;100.00;61350.09;5037076;28;45503;-78
2023/07/15 02:58:09;;;;;;;;;0.00;0.00;;;;;-147.70;100.00;61350.09;5037030;28;45291;-83
2023/07/15 03:00:36;;;;;;;;;0.00;0.00;;;;;-147.70;100.00;61350.09;5037153;28;45222;-82
2023/07/15 03:03:02;;;;;;;;;0.00;0.00;;;;;-147.70;100.00;61350.09;5037237;28;45339;-82
2023/07/15 03:05:28;;;;;;;;;0.00;0.00;;;;;-147.70;100.00;61350.09;5036815;28;45726;-76
2023/07/15 03:07:54;;;;;;;;;0.67;0.00;;;;;-147.70;100.00;61350.09;5036922;28;45547;-79
2023/07/15 03:10:20;;;;;;;;;1.00;0.00;;;;;-147.70;100.00;61350.09;5057107;28;45416;-73
2023/07/15 03:12:48;;;;;;;;;0.00;0.00;;;;;-147.70;100.00;61350.09;5055697;28;45592;-71
2023/07/15 03:15:14;;;;;;;;;0.33;0.33;;;;;-147.70;100.00;61350.09;5056841;28;46523;-73
2023/07/15 03:17:39;;;;;;;;;0.00;0.00;;;;;-147.70;100.00;61350.09;5056874;28;45238;-72
2023/07/15 03:20:15;;;;;;;;;1.00;0.00;;;;;-147.70;100.00;61350.09;5057354;28;45320;-71
2023/07/15 03:22:41;;;;;;;;;0.00;0.00;;;;;-147.70;100.00;61350.09;5056981;28;45359;-73
2023/07/15 03:25:07;;;;;;;;;0.67;0.00;;;;;-147.70;100.00;61350.09;5036610;28;46381;-70
2023/07/15 03:27:32;;;;;;;;;2.00;0.00;;;;;-147.70;100.00;61350.09;5037250;28;45747;-69
2023/07/15 03:29:58;;;;;;;;;2.00;2.00;;;;;-147.70;100.00;61350.09;5056723;28;45535;-71
2023/07/15 03:32:23;;;;;;;;;1.00;1.00;;;;;-147.70;100.00;61350.09;5057049;28;45665;-69
2023/07/15 03:34:49;;;;;;;;;1.00;1.00;;;;;-147.70;100.00;61350.09;5056756;28;46342;-70
2023/07/15 03:37:14;;;;;;;;;0.67;0.33;;;;;-147.70;100.00;61350.09;5056713;28;45336;-69
2023/07/15 03:39:40;;;;;;;;;2.00;0.67;;;;;-147.70;100.00;61350.09;5056664;28;45325;-71
2023/07/15 03:42:05;;;;;;;;;0.25;0.25;;;;;-147.70;100.00;61350.09;5059275;28;45365;-71
2023/07/15 03:44:30;;;;;;;;;0.00;0.00;;;;;-147.70;100.00;61350.09;5040042;28;46645;-70
2023/07/15 03:46:57;;;;;;;;;2.50;0.00;;;;;-147.70;100.00;61350.09;5040053;28;45341;-69
2023/07/15 03:49:23;;;;;;;;;0.33;0.00;;;;;-147.70;100.00;61350.09;5040033;28;45468;-70
2023/07/15 03:51:49;;;;;;;;;0.00;0.00;;;;;-147.70;100.00;61350.09;5043083;28;45409;-71
2023/07/15 03:54:14;;;;;;;;;0.00;0.00;;;;;-147.70;100.00;61350.09;5053741;28;46224;-71
2023/07/15 03:56:40;;;;;;;;;1.67;1.00;;;;;-147.70;100.00;61350.09;5039834;28;45419;-71
2023/07/15 03:59:06;;;;;;;;;0.33;0.00;;;;;-147.70;100.00;61350.09;5040031;28;45530;-70
2023/07/15 04:01:31;;;;;;;;;0.00;0.00;;;;;-147.70;100.00;61350.09;5040053;28;45412;-71
2023/07/15 04:03:56;;;;;;;;;1.50;0.00;;;;;-147.70;100.00;61350.09;5039566;28;46013;-69
2023/07/15 04:06:22;;;;;;;;;0.00;0.00;;;;;-147.70;100.00;61350.09;5039786;28;45243;-70
2023/07/15 04:08:49;;;;;;;;;0.67;0.00;;;;;-147.70;100.00;61350.09;5043334;28;45334;-71
2023/07/15 04:11:16;;;;;;;;;0.00;0.00;;;;;-147.70;100.00;61350.09;5055206;28;45554;-71
2023/07/15 04:13:41;;;;;;;;;0.00;0.00;;;;;-147.70;100.00;61350.09;5056136;28;45674;-71
2023/07/15 04:16:07;;;;;;;;;1.00;0.00;;;;;-147.70;100.00;61350.09;5059272;28;45196;-70
2023/07/15 04:18:33;;;;;;;;;1.00;1.00;;;;;-147.70;100.00;61350.09;5059697;28;45213;-70
2023/07/15 04:20:58;;;;;;;;;1.00;0.00;;;;;-147.70;100.00;61350.09;5060045;28;45455;-69
2023/07/15 04:23:23;;;;;;;;;1.00;1.00;;;;;-147.70;100.00;61350.09;5057753;28;46109;-70
2023/07/15 04:25:49;;;;;;;;;0.33;0.33;;;;;-147.70;100.00;61350.09;5068426;28;45979;-71
2023/07/15 04:28:14;;;;;;;;;0.00;0.00;;;;;-147.70;100.00;61350.09;5039449;28;45349;-70
2023/07/15 04:30:40;;;;;;;;;0.00;0.00;;;;;-147.70;100.00;61350.09;5039682;28;45486;-70
2023/07/15 04:33:05;;;;;;;;;1.67;0.00;;;;;-147.70;100.00;61350.09;5038986;28;46342;-69
2023/07/15 04:35:31;;;;;;;;;3.00;1.00;;;;;-147.70;100.00;61350.09;5039298;28;45357;-70
2023/07/15 04:37:56;;;;;;;;;0.00;0.00;;;;;-147.70;100.00;61350.09;5056416;28;45300;-70
2023/07/15 04:40:21;;;;;;;;;1.00;1.00;;;;;-147.70;100.00;61350.09;5059794;28;45278;-69
2023/07/15 04:42:47;;;;;;;;;1.00;1.00;;;;;-147.70;100.00;61350.09;5059027;28;45293;-69
2023/07/15 04:45:12;;;;;;;;;2.00;0.67;;;;;-147.70;100.00;61350.09;5059062;28;45269;-69
2023/07/15 04:47:39;;;;;;;;;1.00;1.00;;;;;-147.70;100.00;61350.09;5059453;28;45487;-69
2023/07/15 04:50:05;;;;;;;;;0.00;0.00;;;;;-147.70;100.00;61350.09;5059233;28;45505;-69
2023/07/15 04:52:30;;;;;;;;;0.00;0.00;;;;;-147.70;100.00;61350.09;5046920;28;46042;-70
2023/07/15 04:54:55;;;;;;;;;2.33;0.00;;;;;-147.70;100.00;61350.09;5057643;28;45450;-69
2023/07/15 04:57:21;;;;;;;;;2.33;1.00;;;;;-147.70;100.00;61350.09;5059043;28;45478;-69
2023/07/15 04:59:47;;;;;;;;;1.00;0.00;;;;;-147.70;100.00;61350.09;5059243;28;45435;-69
2023/07/15 05:02:12;;;;;;;;;0.67;0.67;;;;;-147.70;100.00;61350.09;5058553;28;47319;-69
2023/07/15 05:04:38;;;;;;;;;0.67;0.67;;;;;-147.70;100.00;61350.09;5059012;28;45376;-68
2023/07/15 05:07:04;;;;;;;;;1.67;1.00;;;;;-147.70;100.00;61350.09;5058069;28;45240;-68
2023/07/15 05:09:31;;;;;;;;;2.67;1.00;;;;;-147.70;100.00;61350.09;5039154;28;45434;-68
2023/07/15 05:11:57;;;;;;;;;2.00;1.00;;;;;-147.70;100.00;61350.09;5042917;28;45722;-68
2023/07/15 05:14:22;;;;;;;;;1.33;0.00;;;;;-147.70;100.00;61350.09;5058391;28;45356;-68
2023/07/15 05:16:47;;;;;;;;;0.33;0.33;;;;;-147.70;100.00;61350.09;5058666;28;45516;-69
2023/07/15 05:19:13;;;;;;;;;0.67;0.00;;;;;-147.70;100.00;61350.09;5057544;28;45311;-70
2023/07/15 05:21:38;;;;;;;;;0.00;0.00;;;;;-147.70;100.00;61350.09;5058578;28;45485;-70
2023/07/15 05:24:04;;;;;;;;;0.75;0.00;;;;;-147.70;100.00;61350.09;5058686;28;45309;-71
2023/07/15 05:26:30;;;;;;;;;0.00;0.00;;;;;-147.70;100.00;61350.09;5056656;28;45448;-74
2023/07/15 05:28:55;;;;;;;;;0.25;0.25;;;;;-147.70;100.00;61350.09;5057587;28;45333;-73
2023/07/15 05:31:21;;;;;;;;;0.00;0.00;;;;;-147.70;100.00;61350.09;5050312;28;45587;-74
2023/07/15 05:33:46;;;;;;;;;1.00;0.00;;;;;-147.70;100.00;61350.09;5058432;28;45257;-73
2023/07/15 05:36:13;;;;;;;;;2.67;0.00;;;;;-147.70;100.00;61350.09;5057436;28;45359;-73
2023/07/15 05:38:43;;;;;;;;;0.00;0.00;;;;;-147.70;100.00;61350.09;5047629;28;45546;-74
2023/07/15 05:41:10;;;;;;;;;1.67;0.67;;;;;-147.70;100.00;61350.09;5038120;28;45298;-74
2023/07/15 05:43:36;;;;;;;;;1.00;1.00;;;;;-147.70;100.00;61350.09;5055444;28;45429;-75
2023/07/15 05:46:01;;;;;;;;;0.00;0.00;;;;;-147.70;100.00;61350.09;5045144;28;45449;-73
2023/07/15 05:48:26;;;;;;;;;0.00;0.00;;;;;-147.70;100.00;61350.09;5046388;28;45444;-74
2023/07/15 05:50:52;;;;;;;;;2.00;1.00;;;;;-147.70;100.00;61350.09;5053346;28;45352;-78
2023/07/15 05:53:17;;;;;;;;;0.00;0.00;;;;;-147.70;100.00;61350.09;5037951;28;45443;-75
2023/07/15 05:55:42;;;;;;;;;1.67;1.00;;;;;-147.70;100.00;61350.09;5057554;28;45360;-75
2023/07/15 05:58:11;;;;;;;;;2.67;0.67;;;;;-147.70;100.00;61350.09;5043180;28;45684;-77
2023/07/15 06:00:37;;;;;;;;;0.00;0.00;;;;;-147.70;100.00;61350.09;5038511;28;46435;-77
2023/07/15 06:03:03;;;;;;;;;0.00;0.00;;;;;-147.70;100.00;61350.09;5053761;28;45645;-77
2023/07/15 06:05:29;;;;;;;;;2.00;0.33;;;;;-147.70;100.00;61350.09;5049720;28;45435;-77
2023/07/15 06:07:54;;;;;;;;;0.25;0.25;;;;;-147.70;100.00;61350.09;5038190;28;45294;-73
2023/07/15 06:10:20;;;;;;;;;1.00;1.00;;;;;-147.70;100.00;61350.09;5044551;28;46139;-73
2023/07/15 06:12:45;;;;;;;;;0.00;0.00;;;;;-147.70;100.00;61350.09;5057892;28;45313;-73
2023/07/15 06:15:10;;;;;;;;;5.00;5.00;;;;;-147.70;100.00;61350.09;5057670;28;45388;-73
2023/07/15 06:17:36;;;;;;;;;1.00;1.00;;;;;-147.70;100.00;61350.09;5058068;28;45487;-73
2023/07/15 06:20:01;;;;;;;;;1.00;1.00;;;;;-147.70;100.00;61350.09;5056553;28;45365;-74
2023/07/15 06:22:26;;;;;;;;;0.00;0.00;;;;;-147.70;100.00;61350.09;5057825;28;45300;-73
2023/07/15 06:24:52;;;;;;;;;0.33;0.33;;;;;-147.70;100.00;61350.09;5052967;28;45608;-74
2023/07/15 06:27:18;;;;;;;;;3.00;3.00;;;;;-147.70;100.00;61350.09;5038004;28;45306;-74
2023/07/15 06:29:44;;;;;;;;;3.33;2.00;;;;;-147.70;100.00;61350.09;5037434;28;47309;-73
2023/07/15 06:32:09;;;;;;;;;4.33;1.33;;;;;-147.70;100.00;61350.09;5042748;28;45464;-72
2023/07/15 06:34:34;;;;;;;;;2.00;1.00;;;;;-147.70;100.00;61350.09;5056544;28;45606;-73
2023/07/15 06:37:00;;;;;;;;;0.00;0.00;;;;;-147.70;100.00;61350.09;5047016;28;45381;-73
2023/07/15 06:39:25;;;;;;;;;0.33;0.33;;;;;-147.70;100.00;61350.09;5050635;28;46688;-72
2023/07/15 06:41:51;;;;;;;;;1.00;1.00;;;;;-147.70;100.00;61350.09;5057423;28;45291;-73
2023/07/15 06:44:16;;;;;;;;;1.00;0.67;;;;;-147.70;100.00;61350.09;5057348;28;45228;-72
2023/07/15 06:46:41;;;;;;;;;1.00;1.00;;;;;-147.70;100.00;61350.09;5043124;28;45437;-73
2023/07/15 06:49:07;;;;;;;;;3.00;1.00;;;;;-147.70;100.00;61350.09;5037376;28;46616;-73
2023/07/15 06:51:32;;;;;;;;;2.33;2.00;;;;;-147.70;100.00;61350.09;5037192;28;45436;-73
2023/07/15 06:53:58;;;;;;;;;0.67;0.67;;;;;-147.70;100.00;61350.09;5046744;28;45535;-77
2023/07/15 06:56:23;;;;;;;;;1.00;1.00;;;;;-147.70;100.00;61350.09;5037935;28;45319;-77
2023/07/15 06:58:48;;;;;;;;;1.00;1.00;;;;;-147.70;100.00;61350.09;5037757;28;46351;-75
2023/07/15 07:01:14;;;;;;;;;0.33;0.33;;;;;-147.70;100.00;61350.09;5041205;28;45358;-73
2023/07/15 07:03:39;;;;;;;;;2.00;1.33;;;;;-147.70;100.00;61350.09;5056354;28;45440;-74
2023/07/15 07:06:04;;;;;;;;;1.00;1.00;;;;;-147.70;100.00;61350.09;5050885;28;45420;-75
2023/07/15 07:08:30;;;;;;;;;4.00;1.67;;;;;-147.70;100.00;61350.09;5050017;28;47142;-74
2023/07/15 07:10:55;;;;;;;;;1.00;1.00;;;;;-147.70;100.00;61350.09;5056951;28;45464;-75
2023/07/15 07:13:20;;;;;;;;;1.00;1.00;;;;;-147.70;100.00;61350.09;5057070;28;45423;-77
2023/07/15 07:15:47;;;;;;;;;1.00;1.00;;;;;-147.70;100.00;61350.09;5053156;28;45369;-77
2023/07/15 07:18:13;;;;;;;;;2.00;2.00;;;;;-147.70;100.00;61350.09;5050832;28;45369;-75
2023/07/15 07:20:39;;;;;;;;;3.67;2.00;;;;;-147.70;100.00;61350.09;5059025;28;45225;-76
2023/07/15 07:23:04;;;;;;;;;1.67;1.67;;;;;-147.70;100.00;61350.09;5056570;28;45327;-76
2023/07/15 07:25:30;;;;;;;;;2.00;2.00;;;;;-147.70;100.00;61350.09;5040573;28;45406;-76
2023/07/15 07:27:55;;;;;;;;;2.00;1.67;;;;;-147.70;100.00;61350.09;5044774;28;46504;-77
2023/07/15 07:30:21;;;;;;;;;2.00;2.00;;;;;-147.70;100.00;61350.09;5050570;28;45462;-74
2023/07/15 07:32:46;;;;;;;;;2.33;1.67;;;;;-147.70;100.00;61350.09;5045170;28;45457;-70
2023/07/15 07:35:11;;;;;;;;;2.00;2.00;;;;;-147.70;100.00;61350.09;5059349;28;45460;-68
2023/07/15 07:37:37;;;;;;;;;2.00;2.00;;;;;-147.70;100.00;61350.09;5050186;28;45370;-72
2023/07/15 07:40:02;;;;;;;;;4.00;2.00;;;;;-147.70;100.00;61350.09;5058112;28;45463;-72
2023/07/15 07:42:28;;;;;;;;;2.33;1.00;;;;;-147.70;100.00;61350.09;5046497;28;45356;-72
2023/07/15 07:44:56;;;;;;;;;3.00;2.00;;;;;-147.70;100.00;61350.09;5041384;28;45455;-73
2023/07/15 07:47:21;;;;;;;;;2.00;2.00;;;;;-147.70;100.00;61350.09;5049013;28;45642;-73
2023/07/15 07:49:47;;;;;;;;;1.33;1.33;;;;;-147.70;100.00;61350.09;5039727;28;45337;-73
2023/07/15 07:52:12;;;;;;;;;4.00;2.67;;;;;-147.70;100.00;61350.09;5047518;28;45423;-74
2023/07/15 07:54:39;;;;;;;;;1.67;1.00;;;;;-147.70;100.00;61350.09;5052559;28;45499;-70
2023/07/15 07:57:05;;;;;;;;;2.00;2.00;;;;;-147.70;100.00;61350.09;5050877;28;47085;-70
2023/07/15 07:59:30;;;;;;;;;1.00;1.00;;;;;-147.70;100.00;61350.09;5057293;28;45555;-71
2023/07/15 08:01:55;;;;;;;;;1.00;1.00;;;;;-147.70;100.00;61350.09;5052189;28;45382;-72
2023/07/15 08:04:21;;;;;;;;;2.00;2.00;;;;;-147.70;100.00;61350.09;5043921;28;45547;-70
2023/07/15 08:06:46;;;;;;;;;4.00;2.00;;;;;-147.70;100.00;61350.09;5048429;28;45718;-72
2023/07/15 08:09:11;;;;;;;;;2.00;2.00;;;;;-147.70;100.00;61350.09;5039969;28;45227;-71
2023/07/15 08:11:38;;;;;;;;;1.00;1.00;;;;;-147.70;100.00;61350.09;5050915;28;45333;-71
2023/07/15 08:14:03;;;;;;;;;4.00;2.00;;;;;-147.70;100.00;61350.09;5039842;28;45503;-72
2023/07/15 08:16:33;;;;;;;;;3.33;1.00;;;;;-147.70;100.00;61350.09;5043914;28;45462;-70
2023/07/15 08:18:58;;;;;;;;;1.67;1.67;;;;;-147.70;100.00;61350.09;5045221;28;45369;-71
2023/07/15 08:21:26;;;;;;;;;8.00;7.00;;;;;-147.70;100.00;61350.09;5051259;28;45503;-74
2023/07/15 08:23:51;;;;;;;;;2.00;1.00;;;;;-147.70;100.00;61350.09;5046876;28;45538;-73
2023/07/15 08:26:16;;;;;;;;;2.00;2.00;;;;;-147.70;100.00;61350.09;5039246;28;46114;-72
2023/07/15 08:28:42;;;;;;;;;0.00;0.00;;;;;-147.70;100.00;61350.09;5044198;28;45383;-73
2023/07/15 08:31:07;;;;;;;;;2.33;2.33;;;;;-147.70;100.00;61350.09;5050815;28;45441;-71
2023/07/15 08:33:32;;;;;;;;;0.00;0.00;;;;;-147.70;100.00;61350.09;5039202;28;45301;-73
2023/07/15 08:35:58;;;;;;;;;3.00;2.00;;;;;-147.70;100.00;61350.09;5038815;28;46989;-74
2023/07/15 08:38:23;;;;;;;;;1.00;1.00;;;;;-147.70;100.00;61350.09;5038950;28;45412;-78
2023/07/15 08:40:54;;;;;;;;;0.00;0.00;;;;;-147.70;100.00;61350.09;5038739;28;45380;-79
2023/07/15 08:43:19;;;;;;;;;1.00;1.00;;;;;-147.70;100.00;61350.09;5039269;28;45430;-77
2023/07/15 08:45:46;;;;;;;;;0.00;0.00;;;;;-147.70;100.00;61350.09;5038862;28;45527;-78
2023/07/15 08:48:12;;;;;;;;;1.00;1.00;;;;;-147.70;100.00;61350.09;5039035;28;45447;-78
2023/07/15 08:50:38;;;;;;;;;1.00;1.00;;;;;-147.70;100.00;61350.09;5054144;28;45486;-75
2023/07/15 08:53:03;;;;;;;;;1.00;1.00;;;;;-147.70;100.00;61350.09;5057143;28;45449;-81
2023/07/15 08:55:30;;;;;;;;;0.67;0.00;;;;;-147.70;100.00;61350.09;5053658;28;45407;-78
2023/07/15 08:57:58;;;;;;;;;0.00;0.00;;;;;-147.70;100.00;61350.09;5056950;28;45504;-78
2023/07/15 09:00:24;;;;;;;;;0.00;0.00;;;;;-147.70;100.00;61350.09;5051090;28;45262;-76
2023/07/15 09:02:51;;;;;;;;;2.00;2.00;;;;;-147.70;100.00;61350.09;5055360;28;45530;-78
2023/07/15 09:05:16;;;;;;;;;0.67;0.00;;;;;-147.70;100.00;61350.09;5046432;28;45453;-79
2023/07/15 09:07:56;;;;;;;;;0.00;0.00;;;;;-147.70;100.00;61350.09;5044087;28;45472;-76
2023/07/15 09:10:21;;;;;;;;;0.67;0.67;;;;;-147.70;100.00;61350.09;5046265;28;46004;-80
2023/07/15 09:12:51;;;;;;;;;0.00;0.00;;;;;-147.70;100.00;61350.09;5046520;28;45376;-77
2023/07/15 09:15:17;;;;;;;;;1.33;0.33;;;;;-147.70;100.00;61350.09;5058014;28;46290;-80
2023/07/15 09:17:53;;;;;;;;;0.67;0.67;;;;;-147.70;100.00;61350.09;5058513;27;45474;-78
2023/07/15 09:20:19;;;;;;;;;0.33;0.33;;;;;-147.70;100.00;61350.09;5058664;28;45421;-76
2023/07/15 09:22:56;;;;;;;;;1.00;0.00;;;;;-147.70;100.00;61350.09;5058672;28;45478;-77
2023/07/15 09:25:22;;;;;;;;;0.00;0.00;;;;;-147.70;100.00;61350.09;5057564;28;46244;-78
2023/07/15 09:27:49;;;;;;;;;0.00;0.00;;;;;-147.70;100.00;61350.09;5048869;28;45302;-81
2023/07/15 09:30:14;;;;;;;;;2.00;1.00;;;;;-147.70;100.00;61350.09;5038549;28;45209;-80
2023/07/15 09:32:40;;;;;;;;;0.00;0.00;;;;;-147.70;100.00;61350.09;5038466;28;45310;-80
2023/07/15 09:35:06;;;;;;;;;0.33;0.33;;;;;-147.70;100.00;61350.09;5038162;28;45357;-81
2023/07/15 09:37:32;;;;;;;;;2.00;0.00;;;;;-147.70;100.00;61350.09;5038280;28;45179;-77
2023/07/15 09:40:15;;;;;;;;;0.00;0.00;;;;;-147.70;100.00;61350.09;5038419;28;45274;-77
2023/07/15 09:42:50;;;;;;;;;0.00;0.00;;;;;-147.70;100.00;61350.09;5038629;28;45361;-77
2023/07/15 09:45:32;;;;;;;;;2.00;1.00;;;;;-147.70;100.00;61350.09;5038283;28;46561;-77
2023/07/15 09:47:58;;;;;;;;;0.67;0.00;;;;;-147.70;100.00;61350.09;5038267;28;45575;-77
2023/07/15 09:50:25;;;;;;;;;0.00;0.00;;;;;-147.70;100.00;61350.09;5043380;28;45345;-80
2023/07/15 09:52:54;;;;;;;;;0.33;0.33;;;;;-147.70;100.00;61350.09;5058390;28;45348;-76
2023/07/15 09:55:20;;;;;;;;;1.00;1.00;;;;;-147.70;100.00;61350.09;5050674;28;46143;-80
2023/07/15 09:57:48;;;;;;;;;1.00;0.00;;;;;-147.70;100.00;61350.09;5046597;28;45292;-79
2023/07/15 10:00:15;;;;;;;;;1.00;0.00;;;;;-147.70;100.00;61350.09;5042737;28;45649;-79
2023/07/15 10:02:42;;;;;;;;;0.00;0.00;;;;;-147.70;100.00;61350.09;5051567;28;46056;-77
2023/07/15 10:05:13;;;;;;;;;1.33;1.00;;;;;-147.70;100.00;61350.09;5050822;28;47115;-81
2023/07/15 10:07:40;;;;;;;;;0.00;0.00;;;;;-147.70;100.00;61350.09;5045119;28;46233;-80
2023/07/15 10:10:07;;;;;;;;;1.67;1.00;;;;;-147.70;100.00;61350.09;5050093;28;45542;-80
2023/07/15 10:12:43;;;;;;;;;6.33;4.67;;;;;-147.70;100.00;61350.09;5048501;28;45580;-80
2023/07/15 10:15:09;;;;;;;;;0.00;0.00;;;;;-147.70;100.00;61350.09;5046921;28;47169;-82
2023/07/15 10:17:36;;;;;;;;;0.67;0.00;;;;;-147.70;100.00;61350.09;5050843;28;45557;-78
2023/07/15 10:20:10;;;;;;;;;2.33;2.33;;;;;-147.70;100.00;61350.09;5051487;28;45451;-80
2023/07/15 10:22:36;;;;;;;;;0.00;0.00;;;;;-147.70;100.00;61350.09;5044997;28;45490;-80
2023/07/15 10:25:04;;;;;;;;;0.00;0.00;;;;;-147.70;100.00;61350.09;5045198;28;45355;-78
2023/07/15 10:27:32;;;;;;;;;0.00;0.00;;;;;-147.70;100.00;61350.09;5045619;28;45382;-78
2023/07/15 10:30:15;;;;;;;;;0.00;0.00;;;;;-147.70;100.00;61350.09;5049782;28;45437;-80
2023/07/15 10:33:08;;;;;;;;;0.00;0.00;;;;;-147.70;100.00;61350.09;5070634;28;45468;-81
2023/07/15 10:35:55;;;;;;;;;0.00;0.00;;;;;-147.70;100.00;61350.09;5045436;28;45540;-81
2023/07/15 10:38:23;;;;;;;;;0.00;0.00;;;;;-147.70;100.00;61350.09;5041937;28;45478;-80
2023/07/15 10:40:52;;;;;;;;;0.00;0.00;;;;;-147.70;100.00;61350.09;5043146;28;45400;-83
2023/07/15 10:43:36;;;;;;;;;0.00;0.00;;;;;-147.70;100.00;61350.09;5052001;28;45557;-83
2023/07/15 10:46:17;;;;;;;;;0.67;0.67;;;;;-147.70;100.00;61350.09;5045137;28;45645;-81
2023/07/15 10:48:46;;;;;;;;;0.00;0.00;;;;;-147.70;100.00;61350.09;5046003;28;45440;-80
2023/07/15 10:51:12;;;;;;;;;0.00;0.00;;;;;-147.70;100.00;61350.09;5043445;28;45451;-79
2023/07/15 10:53:38;;;;;;;;;0.00;0.00;;;;;-147.70;100.00;61350.09;5044310;28;45375;-81
2023/07/15 10:56:06;;;;;;;;;1.00;0.00;;;;;-147.70;100.00;61350.09;5046406;28;45544;-82
2023/07/15 10:58:33;;;;;;;;;0.00;0.00;;;;;-147.70;100.00;61350.09;5049698;28;45157;-81
2023/07/15 11:01:11;;;;;;;;;0.00;0.00;;;;;-147.70;100.00;61350.09;5043230;28;45252;-82
2023/07/15 11:03:38;;;;;;;;;0.00;0.00;;;;;-147.70;100.00;61350.09;5047862;28;45788;-82
2023/07/15 11:06:06;;;;;;;;;0.33;0.33;;;;;-147.70;100.00;61350.09;5042351;28;45397;-80
2023/07/15 11:08:32;;;;;;;;;0.00;0.00;;;;;-147.70;100.00;61350.09;5046704;28;45237;-82